Disclaimer

Please do not use the information listed here in-flight or in-navigation, as they are not provided to us by the airports but are provided by volunteers, so they might be outdated.

Search


Regions


Airport information page

Radio informations:
BEEF ISLAND TWR - 118.4 MHz
BEEF ISLAND GND - 121.9 MHz

Airport informations:
Latitude: 18° 26' 41.40" N
Longitude: 064° 32' 34.71" W
Elevation: 15 feet - 5 meters
Operating hours: Remarks
Operating agency: Civil government, landing fees and diplomatic clearance may be required
Timezone: UTC-4
Fuel: Aviation Gasoline (AVGAS), octane unknown.

Runway information:
07/25 - 4642 x 89 feet< - >1415 x 27 meters

Recent METARs:
TUPJ 191700Z 14012KT 10SM SCT021 30/21 A3001 RMK Q1016
TUPJ 191800Z 13011KT 10SM SCT020 30/21 A2998 RMK Q1015
TUPJ 191800Z 13011KT 10SM SCT020 30/21 A2998 RMK Q1015

Airport on the map: